createdAt,value
2023-08-11T00:00:41.183Z,87.67
2023-08-11T00:02:42.691Z,87.14
2023-08-11T00:04:44.118Z,87.31
2023-08-11T00:06:45.942Z,88.10
2023-08-11T00:08:47.494Z,86.63
2023-08-11T00:10:48.945Z,87.17
2023-08-11T00:12:50.535Z,86.37
2023-08-11T00:14:53.737Z,87.21
2023-08-11T00:16:55.212Z,86.75
2023-08-11T00:18:56.831Z,86.21
2023-08-11T00:21:01.016Z,87.27
2023-08-11T00:23:02.457Z,86.50
2023-08-11T00:25:04.218Z,87.00
2023-08-11T00:27:06.376Z,86.26
2023-08-11T00:29:08.034Z,87.93
2023-08-11T00:31:09.494Z,87.13
2023-08-11T00:33:11.555Z,87.60
2023-08-11T00:35:13.337Z,87.23
2023-08-11T00:37:15.286Z,87.06
2023-08-11T00:39:16.899Z,85.97
2023-08-11T00:41:18.474Z,87.90
2023-08-11T00:43:19.962Z,87.58
2023-08-11T00:45:21.577Z,88.16
2023-08-11T00:47:23.166Z,88.55
2023-08-11T00:49:25.004Z,89.36
2023-08-11T00:51:27.075Z,88.51
2023-08-11T00:53:28.639Z,88.64
2023-08-11T00:55:30.543Z,88.56
2023-08-11T00:57:32.527Z,88.50
2023-08-11T00:59:34.033Z,87.71
2023-08-11T01:01:36.689Z,88.28
2023-08-11T01:03:38.147Z,88.71
2023-08-11T01:05:45.738Z,88.04
2023-08-11T01:08:13.427Z,88.86
2023-08-11T01:10:34.305Z,87.56
2023-08-11T01:13:26.909Z,88.09
2023-08-11T01:15:33.971Z,87.60
2023-08-11T01:17:37.368Z,89.16
2023-08-11T01:19:39.150Z,89.96
2023-08-11T01:21:41.936Z,88.75
2023-08-11T01:23:43.529Z,88.92
2023-08-11T01:25:45.578Z,89.50
2023-08-11T01:27:53.775Z,88.57
2023-08-11T01:29:55.331Z,89.54
2023-08-11T01:31:56.871Z,89.31
2023-08-11T01:33:58.355Z,88.93
2023-08-11T01:35:59.793Z,88.92
2023-08-11T01:38:01.221Z,89.79
2023-08-11T01:42:32.346Z,89.13
2023-08-11T01:44:37.496Z,89.31
2023-08-11T01:46:39.723Z,89.58
2023-08-11T01:48:41.941Z,89.61
2023-08-11T01:50:43.787Z,90.27
2023-08-11T01:52:48.723Z,89.63
2023-08-11T01:54:50.414Z,89.80
2023-08-11T01:56:52.146Z,90.78
2023-08-11T01:58:53.616Z,89.37
2023-08-11T02:00:55.065Z,89.71
2023-08-11T02:02:58.564Z,89.72
2023-08-11T02:05:00.217Z,89.27
2023-08-11T02:07:01.658Z,89.05
2023-08-11T02:09:05.595Z,89.05
2023-08-11T02:11:07.234Z,89.49
2023-08-11T02:13:08.802Z,89.59
2023-08-11T02:17:39.069Z,90.35
2023-08-11T02:19:40.740Z,90.65
2023-08-11T02:21:43.266Z,90.37
2023-08-11T02:23:44.849Z,91.88
2023-08-11T02:25:46.357Z,89.74
2023-08-11T02:27:48.200Z,89.75
2023-08-11T02:29:50.520Z,90.74
2023-08-11T02:31:52.212Z,90.42
2023-08-11T02:33:53.725Z,91.91
2023-08-11T02:35:55.169Z,91.60
2023-08-11T02:37:56.662Z,91.71
2023-08-11T02:39:58.134Z,91.16
2023-08-11T02:41:59.610Z,90.80
2023-08-11T02:44:01.300Z,92.13
2023-08-11T02:46:02.775Z,91.37
2023-08-11T02:48:04.564Z,91.30
2023-08-11T02:50:06.617Z,91.31
2023-08-11T02:52:08.761Z,91.53
2023-08-11T02:54:10.435Z,91.36
2023-08-11T02:56:16.300Z,91.88
2023-08-11T02:58:17.864Z,90.92
2023-08-11T03:00:19.406Z,91.33
2023-08-11T03:02:20.948Z,91.12
2023-08-11T03:04:22.450Z,91.97
2023-08-11T03:06:23.889Z,92.58
2023-08-11T03:08:25.556Z,90.88
2023-08-11T03:10:27.221Z,91.36
2023-08-11T03:12:31.793Z,91.43
2023-08-11T03:14:33.436Z,91.19
2023-08-11T03:16:34.971Z,90.93
2023-08-11T03:18:36.562Z,90.11
2023-08-11T03:20:38.099Z,91.20
2023-08-11T03:22:43.617Z,91.64
2023-08-11T03:24:45.916Z,91.62
2023-08-11T03:26:47.377Z,92.10
2023-08-11T03:28:48.829Z,91.41
2023-08-11T03:30:50.266Z,91.36
2023-08-11T03:32:52.749Z,90.88
2023-08-11T03:34:54.498Z,90.44
2023-08-11T03:36:55.930Z,91.02
2023-08-11T03:38:57.370Z,91.03
2023-08-11T03:40:58.937Z,91.36
2023-08-11T03:43:00.422Z,90.29
2023-08-11T03:45:02.065Z,90.90
2023-08-11T03:47:03.592Z,90.46
2023-08-11T03:49:07.781Z,90.36
2023-08-11T03:51:09.960Z,91.18
2023-08-11T03:53:11.407Z,90.84
2023-08-11T03:55:13.541Z,90.12
2023-08-11T03:57:15.640Z,91.33
2023-08-11T03:59:17.110Z,91.13
2023-08-11T04:01:19.044Z,91.32
2023-08-11T04:03:20.761Z,90.82
2023-08-11T04:05:22.564Z,91.46
2023-08-11T04:07:24.008Z,91.33
2023-08-11T04:09:25.444Z,90.37
2023-08-11T04:11:28.056Z,91.03
2023-08-11T04:13:29.596Z,91.37
2023-08-11T04:15:32.359Z,91.77
2023-08-11T04:17:34.975Z,91.54
2023-08-11T04:19:36.610Z,91.95
2023-08-11T04:21:40.319Z,91.83
2023-08-11T04:23:41.948Z,91.10
2023-08-11T04:25:46.334Z,91.22
2023-08-11T04:27:47.823Z,91.44
2023-08-11T04:29:49.252Z,91.81
2023-08-11T04:31:50.719Z,92.07
2023-08-11T04:33:52.160Z,91.44
2023-08-11T04:35:54.175Z,92.42
2023-08-11T04:37:55.717Z,91.01
2023-08-11T04:39:57.388Z,91.93
2023-08-11T04:41:58.886Z,92.22
2023-08-11T04:44:00.616Z,91.52
2023-08-11T04:46:02.122Z,91.09
2023-08-11T04:48:03.877Z,90.35
2023-08-11T04:50:05.909Z,91.11
2023-08-11T04:52:07.509Z,91.43
2023-08-11T04:54:09.180Z,91.23
2023-08-11T04:56:10.675Z,90.74
2023-08-11T04:58:12.313Z,90.50
2023-08-11T05:00:18.048Z,89.41
2023-08-11T05:02:19.873Z,89.27
2023-08-11T05:04:22.015Z,88.39
2023-08-11T05:06:23.503Z,87.96
2023-08-11T05:08:25.041Z,89.49
2023-08-11T05:10:26.588Z,88.54
2023-08-11T05:12:28.023Z,87.76
2023-08-11T05:14:29.527Z,88.27
2023-08-11T05:16:31.073Z,88.96
2023-08-11T05:18:42.083Z,88.79
2023-08-11T05:20:47.675Z,87.96
2023-08-11T05:22:49.134Z,87.35
2023-08-11T05:24:50.694Z,88.26
2023-08-11T05:26:52.148Z,88.38
2023-08-11T05:28:53.574Z,88.79
2023-08-11T05:30:57.238Z,87.25
2023-08-11T05:32:59.207Z,88.25
2023-08-11T05:35:00.965Z,87.42
2023-08-11T05:37:04.386Z,87.91
2023-08-11T05:39:07.871Z,87.54
2023-08-11T05:41:10.201Z,86.55
2023-08-11T05:43:11.693Z,86.89
2023-08-11T05:45:14.922Z,86.93
2023-08-11T05:47:17.762Z,86.32
2023-08-11T05:49:19.176Z,85.25
2023-08-11T05:51:20.661Z,85.65
2023-08-11T05:53:22.090Z,87.08
2023-08-11T05:55:23.923Z,86.12
2023-08-11T05:57:25.525Z,86.01
2023-08-11T05:59:27.437Z,86.37
2023-08-11T06:01:29.012Z,84.98
2023-08-11T06:03:33.358Z,83.98
2023-08-11T06:05:34.879Z,85.33
2023-08-11T06:07:36.353Z,83.99
2023-08-11T06:09:37.928Z,83.60
2023-08-11T06:11:39.505Z,83.57
2023-08-11T06:13:41.190Z,83.21
2023-08-11T06:15:42.725Z,83.56
2023-08-11T06:17:45.045Z,83.05
2023-08-11T06:19:46.569Z,83.60
2023-08-11T06:21:48.034Z,83.57
2023-08-11T06:23:49.494Z,81.86
2023-08-11T06:25:50.938Z,82.69
2023-08-11T06:27:52.364Z,82.33
2023-08-11T06:29:53.826Z,82.45
2023-08-11T06:31:55.307Z,82.12
2023-08-11T06:33:56.954Z,82.02
2023-08-11T06:35:58.454Z,79.63
2023-08-11T06:38:00.574Z,79.35
2023-08-11T06:40:02.388Z,79.46
2023-08-11T06:42:03.965Z,79.38
2023-08-11T06:44:06.495Z,80.36
2023-08-11T06:46:08.147Z,79.17
2023-08-11T06:48:09.732Z,78.95
2023-08-11T06:50:11.266Z,79.78
2023-08-11T06:52:12.795Z,78.92
2023-08-11T06:54:14.403Z,78.65
2023-08-11T06:56:15.917Z,78.10
2023-08-11T06:58:17.369Z,79.46
2023-08-11T07:00:18.940Z,78.35
2023-08-11T07:02:20.524Z,77.53
2023-08-11T07:04:22.098Z,76.95
2023-08-11T07:06:23.583Z,76.41
2023-08-11T07:08:25.156Z,77.28
2023-08-11T07:10:26.860Z,76.48
2023-08-11T07:12:28.350Z,75.71
2023-08-11T07:14:29.768Z,73.82
2023-08-11T07:16:31.295Z,73.62
2023-08-11T07:18:32.825Z,72.78
2023-08-11T07:20:34.264Z,73.69
2023-08-11T07:22:35.700Z,73.29
2023-08-11T07:24:37.248Z,72.48
2023-08-11T07:26:38.788Z,71.75
2023-08-11T07:28:41.259Z,71.51
2023-08-11T07:30:42.867Z,71.82
2023-08-11T07:32:44.373Z,72.80
2023-08-11T07:34:45.868Z,72.01
2023-08-11T07:36:47.376Z,71.03
2023-08-11T07:38:49.032Z,70.31
2023-08-11T07:40:50.844Z,70.21
2023-08-11T07:42:52.317Z,70.59
2023-08-11T07:44:53.827Z,70.48
2023-08-11T07:46:55.302Z,69.82
2023-08-11T07:48:56.802Z,69.32
2023-08-11T07:50:58.311Z,69.00
2023-08-11T07:52:59.769Z,69.98
2023-08-11T07:55:01.306Z,68.83
2023-08-11T07:57:02.946Z,69.73
2023-08-11T07:59:04.543Z,68.00
2023-08-11T08:01:07.696Z,69.32
2023-08-11T08:03:09.171Z,67.88
2023-08-11T08:05:13.485Z,68.89
2023-08-11T08:07:15.258Z,67.16
2023-08-11T08:09:16.842Z,66.24
2023-08-11T08:11:18.409Z,66.45
2023-08-11T08:13:19.875Z,66.01
2023-08-11T08:15:21.409Z,65.45
2023-08-11T08:17:22.865Z,65.52
2023-08-11T08:19:24.284Z,66.14
2023-08-11T08:21:25.762Z,66.59
2023-08-11T08:23:27.255Z,65.10
2023-08-11T08:25:28.894Z,65.00
2023-08-11T08:27:31.266Z,65.56
2023-08-11T08:29:35.148Z,66.27
2023-08-11T08:31:37.168Z,64.80
2023-08-11T08:33:38.647Z,64.79
2023-08-11T08:35:40.177Z,66.17
2023-08-11T08:37:42.033Z,66.15
2023-08-11T08:39:44.966Z,64.48
2023-08-11T08:41:48.409Z,64.44
2023-08-11T08:43:51.763Z,65.07
2023-08-11T08:45:54.222Z,63.54
2023-08-11T08:47:58.402Z,63.30
2023-08-11T08:50:01.683Z,63.43
2023-08-11T08:52:05.974Z,61.76
2023-08-11T08:54:10.994Z,62.36
2023-08-11T08:56:13.684Z,63.03
2023-08-11T08:58:17.094Z,62.75
2023-08-11T09:00:19.749Z,63.13
2023-08-11T09:02:22.423Z,63.79
2023-08-11T09:04:24.050Z,61.41
2023-08-11T09:06:27.617Z,60.17
2023-08-11T09:08:32.399Z,62.24
2023-08-11T09:10:37.576Z,60.36
2023-08-11T09:12:39.119Z,61.73
2023-08-11T09:14:42.974Z,58.31
2023-08-11T09:16:44.447Z,56.88
2023-08-11T09:18:46.091Z,58.00
2023-08-11T09:20:49.608Z,59.29
2023-08-11T09:22:51.071Z,60.48
2023-08-11T09:24:54.918Z,56.95
2023-08-11T09:26:59.360Z,57.56
2023-08-11T09:29:00.846Z,57.94
2023-08-11T09:31:02.527Z,58.87
2023-08-11T09:33:04.934Z,54.66
2023-08-11T09:35:10.535Z,55.07
2023-08-11T09:37:12.146Z,55.57
2023-08-11T09:39:14.905Z,56.55
2023-08-11T09:41:17.748Z,55.67
2023-08-11T09:43:19.237Z,56.49
2023-08-11T09:45:20.695Z,55.15
2023-08-11T09:47:23.032Z,57.46
2023-08-11T09:49:24.794Z,56.27
2023-08-11T09:51:26.344Z,56.45
2023-08-11T09:53:28.434Z,54.44
2023-08-11T09:55:32.693Z,55.98
2023-08-11T09:57:44.853Z,55.91
2023-08-11T09:59:48.477Z,56.74
2023-08-11T10:01:55.062Z,55.90
2023-08-11T10:03:58.660Z,55.41
2023-08-11T10:06:03.697Z,57.52
2023-08-11T10:08:07.387Z,53.41
2023-08-11T10:10:19.457Z,55.44
2023-08-11T10:12:22.030Z,54.38
2023-08-11T10:14:26.707Z,53.23
2023-08-11T10:16:29.150Z,53.72
2023-08-11T10:18:32.510Z,52.51
2023-08-11T10:20:34.555Z,54.25
2023-08-11T10:22:36.046Z,53.28
2023-08-11T10:24:38.836Z,51.26
2023-08-11T10:26:41.394Z,52.65
2023-08-11T10:28:43.072Z,52.24
2023-08-11T10:30:44.652Z,53.45
2023-08-11T10:32:46.225Z,51.17
2023-08-11T10:34:47.707Z,53.01
2023-08-11T10:36:49.215Z,54.53
2023-08-11T10:39:08.662Z,54.64
2023-08-11T10:41:11.465Z,55.11
2023-08-11T10:43:17.464Z,52.34
2023-08-11T10:45:22.279Z,54.76
2023-08-11T10:47:23.742Z,54.44
2023-08-11T10:49:35.627Z,52.11
2023-08-11T10:51:39.098Z,47.48
2023-08-11T10:53:40.945Z,48.55
2023-08-11T10:55:42.402Z,51.78
2023-08-11T10:57:43.870Z,52.41
2023-08-11T10:59:45.414Z,51.65
2023-08-11T11:01:48.535Z,51.19
2023-08-11T11:03:50.756Z,49.67
2023-08-11T11:05:52.832Z,49.46
2023-08-11T11:07:54.716Z,51.62
2023-08-11T11:09:56.185Z,46.91
2023-08-11T11:11:57.806Z,52.24
2023-08-11T11:13:59.591Z,48.37
2023-08-11T11:16:01.089Z,50.37
2023-08-11T11:18:02.757Z,49.02
2023-08-11T11:20:04.661Z,50.28
2023-08-11T11:22:08.522Z,48.83
2023-08-11T11:24:11.169Z,48.34
2023-08-11T11:26:22.462Z,48.52
2023-08-11T11:28:24.011Z,48.42
2023-08-11T11:30:25.493Z,49.49
2023-08-11T11:32:27.877Z,48.46
2023-08-11T11:34:29.403Z,43.51
2023-08-11T11:36:31.378Z,44.61
2023-08-11T11:38:32.967Z,47.01
2023-08-11T11:40:34.439Z,43.79
2023-08-11T11:42:39.288Z,47.38
2023-08-11T11:44:43.437Z,47.17
2023-08-11T11:46:46.164Z,45.55
2023-08-11T11:48:54.950Z,46.07
2023-08-11T11:50:57.390Z,45.57
2023-08-11T11:52:58.896Z,45.09
2023-08-11T11:55:04.789Z,47.50
2023-08-11T11:57:08.255Z,46.47
2023-08-11T11:59:11.590Z,45.52
2023-08-11T12:01:16.178Z,46.72
2023-08-11T12:03:17.859Z,47.85
2023-08-11T12:05:19.481Z,45.18
2023-08-11T12:07:34.421Z,44.82
2023-08-11T12:09:54.838Z,46.43
2023-08-11T12:11:56.730Z,42.62
2023-08-11T12:14:00.631Z,45.23
2023-08-11T12:16:03.107Z,45.16
2023-08-11T12:18:05.992Z,47.89
2023-08-11T12:20:11.359Z,45.64
2023-08-11T12:22:12.945Z,47.56
2023-08-11T12:24:17.204Z,45.75
2023-08-11T12:26:18.658Z,46.54
2023-08-11T12:28:21.108Z,47.33
2023-08-11T12:30:22.599Z,48.39
2023-08-11T12:32:24.110Z,45.43
2023-08-11T12:34:25.553Z,44.58
2023-08-11T12:36:26.970Z,43.79
2023-08-11T12:38:28.486Z,44.57
2023-08-11T12:40:31.241Z,45.09
2023-08-11T12:42:32.657Z,43.95
2023-08-11T12:44:34.133Z,43.37
2023-08-11T12:46:37.257Z,45.72
2023-08-11T12:48:38.830Z,47.84
2023-08-11T12:50:41.457Z,45.55
2023-08-11T12:52:42.889Z,46.09
2023-08-11T12:54:44.327Z,45.36
2023-08-11T12:56:46.275Z,42.87
2023-08-11T12:58:47.987Z,40.83
2023-08-11T13:00:49.395Z,42.77
2023-08-11T13:02:50.943Z,43.69
2023-08-11T13:04:52.516Z,44.69
2023-08-11T13:06:53.950Z,44.30
2023-08-11T13:08:55.635Z,46.38
2023-08-11T13:10:57.096Z,44.34
2023-08-11T13:12:58.623Z,44.43
2023-08-11T13:15:00.127Z,41.87
2023-08-11T13:17:01.612Z,44.73
2023-08-11T13:19:03.935Z,46.11
2023-08-11T13:21:06.342Z,43.54
2023-08-11T13:23:08.186Z,43.73
2023-08-11T13:25:10.910Z,43.14
2023-08-11T13:27:12.857Z,43.27
2023-08-11T13:29:14.365Z,43.16
2023-08-11T13:31:15.860Z,43.92
2023-08-11T13:33:17.370Z,43.71
2023-08-11T13:35:18.925Z,43.33
2023-08-11T13:37:20.409Z,44.75
2023-08-11T13:39:22.286Z,43.79
2023-08-11T13:41:23.860Z,43.24
2023-08-11T13:43:26.238Z,45.10
2023-08-11T13:45:27.787Z,42.96
2023-08-11T13:47:29.312Z,44.98
2023-08-11T13:49:30.791Z,42.62
2023-08-11T13:51:33.616Z,45.70
2023-08-11T13:53:35.112Z,46.08
2023-08-11T13:55:36.781Z,42.76
2023-08-11T13:57:38.258Z,43.29
2023-08-11T13:59:39.782Z,40.52
2023-08-11T14:01:41.222Z,41.27
2023-08-11T14:03:42.685Z,44.51
2023-08-11T14:05:44.208Z,42.89
2023-08-11T14:07:49.617Z,44.19
2023-08-11T14:09:51.414Z,42.60
2023-08-11T14:11:56.201Z,42.00
2023-08-11T14:13:57.919Z,42.33
2023-08-11T14:15:59.465Z,42.17
2023-08-11T14:18:01.035Z,43.43
2023-08-11T14:20:02.508Z,43.26
2023-08-11T14:22:03.982Z,40.46
2023-08-11T14:24:06.028Z,44.12
2023-08-11T14:26:08.379Z,41.34
2023-08-11T14:28:09.837Z,41.49
2023-08-11T14:30:12.092Z,42.54
2023-08-11T14:32:23.187Z,44.80
2023-08-11T14:34:26.717Z,42.88
2023-08-11T14:36:28.159Z,42.21
2023-08-11T14:38:29.623Z,43.27
2023-08-11T14:40:31.032Z,43.94
2023-08-11T14:42:32.500Z,41.04
2023-08-11T14:44:33.907Z,41.92
2023-08-11T14:46:35.378Z,41.36
2023-08-11T14:48:36.871Z,41.46
2023-08-11T14:50:38.341Z,41.80
2023-08-11T14:52:39.753Z,42.05
2023-08-11T14:54:41.257Z,43.62
2023-08-11T14:56:42.984Z,41.14
2023-08-11T14:58:46.642Z,41.77
2023-08-11T15:00:48.864Z,40.20
2023-08-11T15:02:50.410Z,39.73
2023-08-11T15:04:52.846Z,40.75
2023-08-11T15:06:54.310Z,39.61
2023-08-11T15:08:55.773Z,40.55
2023-08-11T15:10:57.344Z,38.94
2023-08-11T15:13:00.713Z,41.96
2023-08-11T15:15:02.188Z,42.89
2023-08-11T15:17:03.862Z,42.37
2023-08-11T15:19:05.359Z,41.54
2023-08-11T15:21:07.666Z,40.48
2023-08-11T15:23:09.159Z,39.50
2023-08-11T15:25:10.674Z,40.73
2023-08-11T15:27:14.034Z,37.96
2023-08-11T15:29:15.577Z,38.31
2023-08-11T15:31:17.754Z,37.39
2023-08-11T15:33:19.249Z,38.21
2023-08-11T15:35:20.863Z,36.05
2023-08-11T15:37:22.320Z,34.90
2023-08-11T15:39:23.940Z,36.90
2023-08-11T15:41:25.392Z,34.89
2023-08-11T15:43:26.861Z,32.78
2023-08-11T15:45:29.110Z,30.44
2023-08-11T15:47:30.594Z,30.72
2023-08-11T15:49:32.024Z,29.32
2023-08-11T15:51:33.578Z,28.65
2023-08-11T15:53:35.042Z,28.82
2023-08-11T15:55:37.115Z,29.62
2023-08-11T15:57:38.661Z,31.43
2023-08-11T15:59:40.196Z,32.47
2023-08-11T16:01:44.285Z,30.71
2023-08-11T16:03:57.389Z,25.25
2023-08-11T16:05:59.823Z,24.08
2023-08-11T16:08:01.362Z,23.45
2023-08-11T16:10:03.147Z,20.80
2023-08-11T16:12:05.070Z,19.21
2023-08-11T16:14:06.543Z,20.07
2023-08-11T16:16:09.719Z,19.87
2023-08-11T16:18:11.872Z,20.08
2023-08-11T16:20:13.490Z,24.17
2023-08-11T16:22:15.022Z,23.88
2023-08-11T16:24:16.601Z,24.62
2023-08-11T16:26:18.038Z,24.82
2023-08-11T16:28:19.510Z,23.02
2023-08-11T16:30:21.100Z,26.07
2023-08-11T16:32:22.596Z,22.47
2023-08-11T16:34:24.955Z,20.16
2023-08-11T16:36:26.523Z,21.56
2023-08-11T16:38:28.019Z,20.50
2023-08-11T16:40:30.904Z,19.66
2023-08-11T16:42:32.382Z,19.91
2023-08-11T16:44:33.814Z,22.56
2023-08-11T16:46:35.261Z,26.25
2023-08-11T16:48:36.795Z,29.36
2023-08-11T16:50:38.790Z,25.30
2023-08-11T16:52:40.303Z,23.45
2023-08-11T16:54:41.781Z,23.15
2023-08-11T16:56:43.299Z,23.94
2023-08-11T16:58:44.741Z,27.79
2023-08-11T17:00:48.293Z,25.70
2023-08-11T17:02:52.254Z,26.16
2023-08-11T17:04:53.778Z,27.23
2023-08-11T17:06:55.214Z,24.97
2023-08-11T17:08:56.700Z,25.85
2023-08-11T17:10:58.346Z,28.61
2023-08-11T17:12:59.819Z,27.74
2023-08-11T17:15:01.330Z,32.64
2023-08-11T17:17:02.876Z,33.50
2023-08-11T17:19:04.559Z,36.91
2023-08-11T17:21:06.067Z,38.98
2023-08-11T17:23:07.608Z,38.41
2023-08-11T17:25:09.373Z,40.08
2023-08-11T17:27:10.880Z,40.39
2023-08-11T17:29:12.449Z,42.04
2023-08-11T17:31:14.252Z,42.77
2023-08-11T17:33:15.781Z,44.54
2023-08-11T17:35:17.345Z,43.92
2023-08-11T17:37:18.763Z,43.50
2023-08-11T17:39:21.360Z,44.07
2023-08-11T17:41:25.262Z,46.83
2023-08-11T17:43:26.870Z,45.93
2023-08-11T17:45:28.526Z,46.59
2023-08-11T17:47:30.007Z,46.65
2023-08-11T17:49:31.594Z,46.63
2023-08-11T17:51:33.100Z,47.38
2023-08-11T17:53:34.589Z,48.55
2023-08-11T17:55:36.067Z,48.64
2023-08-11T17:57:37.527Z,48.95
2023-08-11T17:59:39.365Z,50.67
2023-08-11T18:01:41.056Z,50.36
2023-08-11T18:03:42.628Z,51.00
2023-08-11T18:05:44.413Z,51.27
2023-08-11T18:07:45.948Z,51.90
2023-08-11T18:09:47.379Z,51.58
2023-08-11T18:11:48.873Z,52.03
2023-08-11T18:13:50.330Z,51.66
2023-08-11T18:15:51.800Z,52.29
2023-08-11T18:17:54.731Z,51.82
2023-08-11T18:19:56.380Z,51.77
2023-08-11T18:21:57.931Z,51.66
2023-08-11T18:23:59.478Z,53.78
2023-08-11T18:26:00.915Z,53.58
2023-08-11T18:28:02.433Z,54.23
2023-08-11T18:30:05.051Z,54.84
2023-08-11T18:32:06.694Z,54.70
2023-08-11T18:34:08.137Z,55.02
2023-08-11T18:36:09.764Z,54.83
2023-08-11T18:38:11.169Z,55.63
2023-08-11T18:40:12.794Z,55.67
2023-08-11T18:42:14.387Z,55.98
2023-08-11T18:44:18.921Z,56.59
2023-08-11T18:46:20.454Z,56.79
2023-08-11T18:48:21.911Z,57.29
2023-08-11T18:50:23.486Z,57.78
2023-08-11T18:52:24.955Z,57.07
2023-08-11T18:54:26.629Z,57.46
2023-08-11T18:56:28.135Z,57.28
2023-08-11T18:58:29.587Z,58.03
2023-08-11T19:00:31.072Z,58.13
2023-08-11T19:02:32.540Z,58.64
2023-08-11T19:04:34.166Z,58.80
2023-08-11T19:06:38.385Z,59.09
2023-08-11T19:08:39.878Z,59.47
2023-08-11T19:10:41.355Z,59.48
2023-08-11T19:12:42.816Z,60.21
2023-08-11T19:14:44.545Z,61.39
2023-08-11T19:16:46.032Z,60.78
2023-08-11T19:18:48.132Z,62.08
2023-08-11T19:20:49.832Z,62.49
2023-08-11T19:22:51.282Z,62.04
2023-08-11T19:24:52.734Z,62.53
2023-08-11T19:26:54.147Z,62.39
2023-08-11T19:28:56.392Z,62.46
2023-08-11T19:31:00.660Z,61.24
2023-08-11T19:33:02.618Z,61.17
2023-08-11T19:35:05.998Z,61.90
2023-08-11T19:37:08.006Z,61.84
2023-08-11T19:39:09.948Z,61.53
2023-08-11T19:41:11.933Z,62.00
2023-08-11T19:43:14.458Z,63.29
2023-08-11T19:45:15.903Z,63.61
2023-08-11T19:47:17.493Z,63.69
2023-08-11T19:49:21.543Z,63.61
2023-08-11T19:51:23.762Z,64.26
2023-08-11T19:53:25.344Z,65.18
2023-08-11T19:55:26.958Z,65.53
2023-08-11T19:57:28.444Z,65.63
2023-08-11T19:59:29.983Z,65.72
2023-08-11T20:01:31.879Z,66.27
2023-08-11T20:03:33.414Z,66.25
2023-08-11T20:05:41.816Z,67.13
2023-08-11T20:07:43.315Z,66.85
2023-08-11T20:09:44.761Z,67.46
2023-08-11T20:11:46.211Z,66.67
2023-08-11T20:13:47.696Z,67.49
2023-08-11T20:15:49.229Z,67.17
2023-08-11T20:17:50.776Z,67.21
2023-08-11T20:19:52.275Z,66.69
2023-08-11T20:21:53.928Z,65.76
2023-08-11T20:23:55.426Z,65.95
2023-08-11T20:25:56.914Z,66.33
2023-08-11T20:27:59.165Z,66.51
2023-08-11T20:30:00.649Z,66.79
2023-08-11T20:32:04.420Z,67.32
2023-08-11T20:34:06.625Z,68.00
2023-08-11T20:36:08.153Z,68.67
2023-08-11T20:38:09.573Z,68.28
2023-08-11T20:40:11.490Z,68.55
2023-08-11T20:42:12.959Z,68.70
2023-08-11T20:44:14.414Z,70.11
2023-08-11T20:46:15.881Z,70.31
2023-08-11T20:48:17.745Z,71.00
2023-08-11T20:50:19.304Z,70.57
2023-08-11T20:52:20.830Z,72.45
2023-08-11T20:54:22.768Z,72.45
2023-08-11T20:56:24.289Z,72.11
2023-08-11T20:58:25.811Z,73.30
2023-08-11T21:00:27.234Z,74.03
2023-08-11T21:02:28.918Z,73.56
2023-08-11T21:04:30.520Z,73.00
2023-08-11T21:06:32.232Z,74.96
2023-08-11T21:08:33.809Z,75.11
2023-08-11T21:10:35.843Z,74.90
2023-08-11T21:12:37.300Z,75.75
2023-08-11T21:14:38.796Z,75.35
2023-08-11T21:16:41.061Z,76.79
2023-08-11T21:18:42.604Z,75.74
2023-08-11T21:20:44.161Z,75.70
2023-08-11T21:22:45.603Z,75.44
2023-08-11T21:24:47.083Z,75.65
2023-08-11T21:26:48.600Z,75.86
2023-08-11T21:28:50.313Z,76.17
2023-08-11T21:31:03.841Z,76.80
2023-08-11T21:33:13.492Z,75.87
2023-08-11T21:35:14.988Z,75.71
2023-08-11T21:37:16.440Z,75.29
2023-08-11T21:39:19.150Z,74.37
2023-08-11T21:41:20.603Z,74.94
2023-08-11T21:43:22.442Z,75.03
2023-08-11T21:45:24.060Z,75.29
2023-08-11T21:47:25.681Z,76.08
2023-08-11T21:49:27.119Z,75.50
2023-08-11T21:51:28.596Z,77.92
2023-08-11T21:53:30.188Z,76.80
2023-08-11T21:55:31.674Z,77.96
2023-08-11T21:57:33.565Z,77.65
2023-08-11T21:59:35.063Z,78.31
2023-08-11T22:01:36.527Z,77.90
2023-08-11T22:03:38.003Z,77.31
2023-08-11T22:05:39.734Z,78.43
2023-08-11T22:07:43.590Z,78.83
2023-08-11T22:09:45.161Z,79.63
2023-08-11T22:11:46.660Z,77.97
2023-08-11T22:13:48.145Z,78.88
2023-08-11T22:15:50.833Z,79.74
2023-08-11T22:17:54.550Z,79.00
2023-08-11T22:19:56.220Z,77.26
2023-08-11T22:21:57.979Z,77.36
2023-08-11T22:23:59.446Z,78.49
2023-08-11T22:26:00.886Z,79.30
2023-08-11T22:28:03.003Z,81.24
2023-08-11T22:30:06.088Z,80.07
2023-08-11T22:32:07.725Z,79.57
2023-08-11T22:34:09.242Z,77.71
2023-08-11T22:36:10.683Z,77.60
2023-08-11T22:38:12.654Z,75.00
2023-08-11T22:40:14.186Z,75.52
2023-08-11T22:42:27.884Z,75.25
2023-08-11T22:44:29.403Z,76.52
2023-08-11T22:46:30.878Z,77.10
2023-08-11T22:48:32.473Z,76.93
2023-08-11T22:50:34.038Z,76.81
2023-08-11T22:52:36.028Z,79.33
2023-08-11T22:54:37.620Z,78.50
2023-08-11T22:56:39.117Z,78.63
2023-08-11T22:58:40.559Z,80.43
2023-08-11T23:00:44.840Z,80.53
2023-08-11T23:02:46.334Z,82.43
2023-08-11T23:04:47.898Z,82.36
2023-08-11T23:06:49.347Z,83.93
2023-08-11T23:08:50.803Z,84.33
2023-08-11T23:10:52.299Z,82.53
2023-08-11T23:12:53.781Z,84.80
2023-08-11T23:14:55.349Z,86.38
2023-08-11T23:16:57.771Z,86.77
2023-08-11T23:18:59.762Z,85.55
2023-08-11T23:21:04.129Z,86.54
2023-08-11T23:23:05.613Z,85.13
2023-08-11T23:25:07.441Z,87.77
2023-08-11T23:27:09.331Z,88.51
2023-08-11T23:29:11.104Z,88.86
2023-08-11T23:31:12.636Z,86.49
2023-08-11T23:33:14.145Z,86.26
2023-08-11T23:35:15.768Z,85.00
2023-08-11T23:37:17.212Z,86.38
2023-08-11T23:39:18.975Z,86.84
2023-08-11T23:41:20.506Z,86.58
2023-08-11T23:43:21.975Z,85.55
2023-08-11T23:45:23.753Z,88.16
2023-08-11T23:47:25.707Z,88.09
2023-08-11T23:49:27.183Z,88.62
2023-08-11T23:51:28.737Z,89.12
2023-08-11T23:53:30.166Z,91.01
2023-08-11T23:55:31.665Z,92.02
2023-08-11T23:57:35.266Z,91.14
2023-08-11T23:59:37.135Z,93.23
